sensor_id;sensor_type;location;lat;lon;timestamp;P1;durP1;ratioP1;P2;durP2;ratioP2
36137;SDS011;22194;50.046;21.954;2022-07-05T00:00:11;14.60;;;6.50;;
36137;SDS011;22194;50.046;21.954;2022-07-05T00:03:00;12.30;;;6.30;;
36137;SDS011;22194;50.046;21.954;2022-07-05T00:05:30;11.80;;;6.00;;
36137;SDS011;22194;50.046;21.954;2022-07-05T00:07:58;14.50;;;6.60;;
36137;SDS011;22194;50.046;21.954;2022-07-05T00:10:31;17.00;;;6.70;;
36137;SDS011;22194;50.046;21.954;2022-07-05T00:13:05;17.50;;;6.60;;
36137;SDS011;22194;50.046;21.954;2022-07-05T00:15:36;13.20;;;6.60;;
36137;SDS011;22194;50.046;21.954;2022-07-05T00:18:04;17.50;;;6.10;;
36137;SDS011;22194;50.046;21.954;2022-07-05T00:20:34;14.80;;;5.80;;
36137;SDS011;22194;50.046;21.954;2022-07-05T00:23:03;12.80;;;6.00;;
36137;SDS011;22194;50.046;21.954;2022-07-05T00:25:33;16.50;;;6.90;;
36137;SDS011;22194;50.046;21.954;2022-07-05T00:28:02;14.00;;;6.50;;
36137;SDS011;22194;50.046;21.954;2022-07-05T00:30:33;14.50;;;6.10;;
36137;SDS011;22194;50.046;21.954;2022-07-05T00:33:02;14.30;;;6.30;;
36137;SDS011;22194;50.046;21.954;2022-07-05T00:35:29;14.10;;;6.20;;
36137;SDS011;22194;50.046;21.954;2022-07-05T00:37:57;11.70;;;6.10;;
36137;SDS011;22194;50.046;21.954;2022-07-05T00:40:26;14.60;;;6.10;;
36137;SDS011;22194;50.046;21.954;2022-07-05T00:42:56;14.50;;;5.90;;
36137;SDS011;22194;50.046;21.954;2022-07-05T00:45:26;17.00;;;7.10;;
36137;SDS011;22194;50.046;21.954;2022-07-05T00:47:59;14.00;;;5.90;;
36137;SDS011;22194;50.046;21.954;2022-07-05T00:50:29;13.00;;;6.10;;
36137;SDS011;22194;50.046;21.954;2022-07-05T00:53:01;20.60;;;7.90;;
36137;SDS011;22194;50.046;21.954;2022-07-05T00:55:30;18.10;;;7.70;;
36137;SDS011;22194;50.046;21.954;2022-07-05T00:58:01;20.50;;;7.80;;
36137;SDS011;22194;50.046;21.954;2022-07-05T01:00:32;16.20;;;8.10;;
36137;SDS011;22194;50.046;21.954;2022-07-05T01:03:00;17.70;;;7.30;;
36137;SDS011;22194;50.046;21.954;2022-07-05T01:05:31;17.80;;;7.30;;
36137;SDS011;22194;50.046;21.954;2022-07-05T01:08:01;16.80;;;6.70;;
36137;SDS011;22194;50.046;21.954;2022-07-05T01:10:31;16.50;;;7.50;;
36137;SDS011;22194;50.046;21.954;2022-07-05T01:13:00;17.70;;;7.40;;
36137;SDS011;22194;50.046;21.954;2022-07-05T01:15:31;15.30;;;6.60;;
36137;SDS011;22194;50.046;21.954;2022-07-05T01:18:02;15.30;;;6.90;;
36137;SDS011;22194;50.046;21.954;2022-07-05T01:20:32;16.10;;;7.10;;
36137;SDS011;22194;50.046;21.954;2022-07-05T01:23:02;20.10;;;8.50;;
36137;SDS011;22194;50.046;21.954;2022-07-05T01:25:33;17.30;;;6.90;;
36137;SDS011;22194;50.046;21.954;2022-07-05T01:28:02;17.00;;;7.60;;
36137;SDS011;22194;50.046;21.954;2022-07-05T01:30:33;23.80;;;8.20;;
36137;SDS011;22194;50.046;21.954;2022-07-05T01:33:05;19.40;;;8.20;;
36137;SDS011;22194;50.046;21.954;2022-07-05T01:35:37;17.90;;;8.10;;
36137;SDS011;22194;50.046;21.954;2022-07-05T01:38:05;16.30;;;8.00;;
36137;SDS011;22194;50.046;21.954;2022-07-05T01:40:33;18.80;;;7.50;;
36137;SDS011;22194;50.046;21.954;2022-07-05T01:43:03;18.90;;;8.00;;
36137;SDS011;22194;50.046;21.954;2022-07-05T01:45:34;17.80;;;7.50;;
36137;SDS011;22194;50.046;21.954;2022-07-05T01:48:11;15.10;;;7.00;;
36137;SDS011;22194;50.046;21.954;2022-07-05T01:50:51;13.30;;;6.20;;
36137;SDS011;22194;50.046;21.954;2022-07-05T01:53:23;17.70;;;7.10;;
36137;SDS011;22194;50.046;21.954;2022-07-05T01:55:58;14.00;;;6.40;;
36137;SDS011;22194;50.046;21.954;2022-07-05T01:58:29;15.90;;;6.80;;
36137;SDS011;22194;50.046;21.954;2022-07-05T02:01:00;16.30;;;6.70;;
36137;SDS011;22194;50.046;21.954;2022-07-05T02:03:31;12.70;;;6.20;;
36137;SDS011;22194;50.046;21.954;2022-07-05T02:06:22;14.90;;;6.80;;
36137;SDS011;22194;50.046;21.954;2022-07-05T02:08:50;15.50;;;7.10;;
36137;SDS011;22194;50.046;21.954;2022-07-05T02:11:18;15.10;;;6.80;;
36137;SDS011;22194;50.046;21.954;2022-07-05T02:13:46;15.30;;;6.80;;
36137;SDS011;22194;50.046;21.954;2022-07-05T02:16:16;16.00;;;7.50;;
36137;SDS011;22194;50.046;21.954;2022-07-05T02:18:47;13.90;;;7.20;;
36137;SDS011;22194;50.046;21.954;2022-07-05T02:21:17;15.70;;;7.20;;
36137;SDS011;22194;50.046;21.954;2022-07-05T02:23:48;18.20;;;7.50;;
36137;SDS011;22194;50.046;21.954;2022-07-05T02:26:19;18.60;;;7.20;;
36137;SDS011;22194;50.046;21.954;2022-07-05T02:28:49;15.40;;;6.90;;
36137;SDS011;22194;50.046;21.954;2022-07-05T02:31:20;18.90;;;7.80;;
36137;SDS011;22194;50.046;21.954;2022-07-05T02:33:51;20.70;;;7.80;;
36137;SDS011;22194;50.046;21.954;2022-07-05T02:36:22;18.50;;;7.90;;
36137;SDS011;22194;50.046;21.954;2022-07-05T02:38:52;18.70;;;7.70;;
36137;SDS011;22194;50.046;21.954;2022-07-05T02:41:20;16.20;;;7.40;;
36137;SDS011;22194;50.046;21.954;2022-07-05T02:43:51;15.90;;;7.50;;
36137;SDS011;22194;50.046;21.954;2022-07-05T02:46:22;19.80;;;8.00;;
36137;SDS011;22194;50.046;21.954;2022-07-05T02:48:50;19.50;;;8.20;;
36137;SDS011;22194;50.046;21.954;2022-07-05T02:51:26;15.00;;;6.60;;
36137;SDS011;22194;50.046;21.954;2022-07-05T02:53:57;14.10;;;6.60;;
36137;SDS011;22194;50.046;21.954;2022-07-05T02:56:27;14.90;;;7.00;;
36137;SDS011;22194;50.046;21.954;2022-07-05T02:58:57;13.60;;;6.40;;
36137;SDS011;22194;50.046;21.954;2022-07-05T03:01:26;15.00;;;6.70;;
36137;SDS011;22194;50.046;21.954;2022-07-05T03:03:57;16.00;;;6.60;;
36137;SDS011;22194;50.046;21.954;2022-07-05T03:06:29;13.10;;;6.20;;
36137;SDS011;22194;50.046;21.954;2022-07-05T03:08:59;13.80;;;6.30;;
36137;SDS011;22194;50.046;21.954;2022-07-05T03:11:30;12.80;;;6.60;;
36137;SDS011;22194;50.046;21.954;2022-07-05T03:14:00;14.90;;;6.40;;
36137;SDS011;22194;50.046;21.954;2022-07-05T03:16:31;15.00;;;6.70;;
36137;SDS011;22194;50.046;21.954;2022-07-05T03:19:01;19.60;;;7.70;;
36137;SDS011;22194;50.046;21.954;2022-07-05T03:21:29;17.70;;;8.70;;
36137;SDS011;22194;50.046;21.954;2022-07-05T03:23:59;18.80;;;8.90;;
36137;SDS011;22194;50.046;21.954;2022-07-05T03:26:29;22.60;;;8.90;;
36137;SDS011;22194;50.046;21.954;2022-07-05T03:28:59;22.40;;;9.20;;
36137;SDS011;22194;50.046;21.954;2022-07-05T03:31:29;19.90;;;9.00;;
36137;SDS011;22194;50.046;21.954;2022-07-05T03:34:00;18.80;;;9.40;;
36137;SDS011;22194;50.046;21.954;2022-07-05T03:36:31;19.00;;;8.70;;
36137;SDS011;22194;50.046;21.954;2022-07-05T03:39:01;19.10;;;8.50;;
36137;SDS011;22194;50.046;21.954;2022-07-05T03:41:30;18.50;;;8.60;;
36137;SDS011;22194;50.046;21.954;2022-07-05T03:43:58;15.90;;;7.60;;
36137;SDS011;22194;50.046;21.954;2022-07-05T03:48:57;21.70;;;9.90;;
36137;SDS011;22194;50.046;21.954;2022-07-05T03:51:27;16.70;;;8.10;;
36137;SDS011;22194;50.046;21.954;2022-07-05T03:53:56;17.30;;;8.40;;
36137;SDS011;22194;50.046;21.954;2022-07-05T03:56:25;16.40;;;7.50;;
36137;SDS011;22194;50.046;21.954;2022-07-05T03:58:53;15.30;;;7.50;;
36137;SDS011;22194;50.046;21.954;2022-07-05T04:01:24;17.00;;;6.90;;
36137;SDS011;22194;50.046;21.954;2022-07-05T04:03:53;15.10;;;6.70;;
36137;SDS011;22194;50.046;21.954;2022-07-05T04:06:23;17.00;;;7.50;;
36137;SDS011;22194;50.046;21.954;2022-07-05T04:08:54;16.70;;;7.10;;
36137;SDS011;22194;50.046;21.954;2022-07-05T04:11:24;13.90;;;6.90;;
36137;SDS011;22194;50.046;21.954;2022-07-05T04:13:52;16.80;;;7.00;;
36137;SDS011;22194;50.046;21.954;2022-07-05T04:16:21;22.90;;;8.00;;
36137;SDS011;22194;50.046;21.954;2022-07-05T04:18:52;20.30;;;7.70;;
36137;SDS011;22194;50.046;21.954;2022-07-05T04:21:21;18.60;;;8.30;;
36137;SDS011;22194;50.046;21.954;2022-07-05T04:23:51;20.10;;;9.40;;
36137;SDS011;22194;50.046;21.954;2022-07-05T04:26:20;21.60;;;9.50;;
36137;SDS011;22194;50.046;21.954;2022-07-05T04:28:49;19.00;;;8.50;;
36137;SDS011;22194;50.046;21.954;2022-07-05T04:31:24;19.90;;;9.50;;
36137;SDS011;22194;50.046;21.954;2022-07-05T04:33:52;23.90;;;9.30;;
36137;SDS011;22194;50.046;21.954;2022-07-05T04:36:22;20.70;;;9.60;;
36137;SDS011;22194;50.046;21.954;2022-07-05T04:38:50;22.00;;;9.40;;
36137;SDS011;22194;50.046;21.954;2022-07-05T04:41:18;21.00;;;9.20;;
36137;SDS011;22194;50.046;21.954;2022-07-05T04:43:48;18.80;;;8.50;;
36137;SDS011;22194;50.046;21.954;2022-07-05T04:46:17;19.30;;;9.20;;
36137;SDS011;22194;50.046;21.954;2022-07-05T04:48:46;19.50;;;9.20;;
36137;SDS011;22194;50.046;21.954;2022-07-05T04:51:14;18.70;;;8.40;;
36137;SDS011;22194;50.046;21.954;2022-07-05T04:53:42;15.00;;;7.40;;
36137;SDS011;22194;50.046;21.954;2022-07-05T04:56:11;16.80;;;7.50;;
36137;SDS011;22194;50.046;21.954;2022-07-05T04:58:39;16.60;;;7.30;;
36137;SDS011;22194;50.046;21.954;2022-07-05T05:01:07;22.00;;;7.90;;
36137;SDS011;22194;50.046;21.954;2022-07-05T05:03:37;16.00;;;7.70;;
36137;SDS011;22194;50.046;21.954;2022-07-05T05:06:08;14.10;;;7.40;;
36137;SDS011;22194;50.046;21.954;2022-07-05T05:08:38;16.70;;;7.80;;
36137;SDS011;22194;50.046;21.954;2022-07-05T05:11:09;15.80;;;7.70;;
36137;SDS011;22194;50.046;21.954;2022-07-05T05:13:37;17.60;;;8.00;;
36137;SDS011;22194;50.046;21.954;2022-07-05T05:16:05;18.60;;;7.50;;
36137;SDS011;22194;50.046;21.954;2022-07-05T05:18:35;16.80;;;7.20;;
36137;SDS011;22194;50.046;21.954;2022-07-05T05:21:06;18.60;;;7.50;;
36137;SDS011;22194;50.046;21.954;2022-07-05T05:23:35;15.20;;;7.30;;
36137;SDS011;22194;50.046;21.954;2022-07-05T05:26:05;23.30;;;7.50;;
36137;SDS011;22194;50.046;21.954;2022-07-05T05:28:35;14.50;;;7.10;;
36137;SDS011;22194;50.046;21.954;2022-07-05T05:31:05;15.70;;;7.80;;
36137;SDS011;22194;50.046;21.954;2022-07-05T05:33:36;19.90;;;6.90;;
36137;SDS011;22194;50.046;21.954;2022-07-05T05:36:07;16.10;;;7.40;;
36137;SDS011;22194;50.046;21.954;2022-07-05T05:38:35;16.10;;;7.00;;
36137;SDS011;22194;50.046;21.954;2022-07-05T05:41:05;15.10;;;6.70;;
36137;SDS011;22194;50.046;21.954;2022-07-05T05:43:34;18.40;;;6.80;;
36137;SDS011;22194;50.046;21.954;2022-07-05T05:46:05;14.40;;;6.60;;
36137;SDS011;22194;50.046;21.954;2022-07-05T05:48:35;18.30;;;6.70;;
36137;SDS011;22194;50.046;21.954;2022-07-05T05:51:05;14.00;;;6.60;;
36137;SDS011;22194;50.046;21.954;2022-07-05T05:53:34;15.80;;;6.50;;
36137;SDS011;22194;50.046;21.954;2022-07-05T05:56:02;15.10;;;6.80;;
36137;SDS011;22194;50.046;21.954;2022-07-05T05:58:31;13.70;;;7.10;;
36137;SDS011;22194;50.046;21.954;2022-07-05T06:01:00;14.80;;;6.80;;
36137;SDS011;22194;50.046;21.954;2022-07-05T06:03:28;14.50;;;6.50;;
36137;SDS011;22194;50.046;21.954;2022-07-05T06:05:55;14.80;;;6.60;;
36137;SDS011;22194;50.046;21.954;2022-07-05T06:08:25;17.40;;;6.70;;
36137;SDS011;22194;50.046;21.954;2022-07-05T06:10:53;14.10;;;6.60;;
36137;SDS011;22194;50.046;21.954;2022-07-05T06:13:33;15.70;;;7.10;;
36137;SDS011;22194;50.046;21.954;2022-07-05T06:16:04;14.90;;;6.90;;
36137;SDS011;22194;50.046;21.954;2022-07-05T06:18:36;12.10;;;6.50;;
36137;SDS011;22194;50.046;21.954;2022-07-05T06:21:04;13.10;;;6.30;;
36137;SDS011;22194;50.046;21.954;2022-07-05T06:23:34;13.70;;;6.30;;
36137;SDS011;22194;50.046;21.954;2022-07-05T06:26:05;14.80;;;6.10;;
36137;SDS011;22194;50.046;21.954;2022-07-05T06:28:35;15.70;;;6.70;;
36137;SDS011;22194;50.046;21.954;2022-07-05T06:31:04;11.50;;;6.30;;
36137;SDS011;22194;50.046;21.954;2022-07-05T06:33:32;11.30;;;6.10;;
36137;SDS011;22194;50.046;21.954;2022-07-05T06:36:00;13.30;;;6.70;;
36137;SDS011;22194;50.046;21.954;2022-07-05T06:38:28;15.90;;;6.50;;
36137;SDS011;22194;50.046;21.954;2022-07-05T06:40:56;11.70;;;5.90;;
36137;SDS011;22194;50.046;21.954;2022-07-05T06:43:26;14.20;;;6.00;;
36137;SDS011;22194;50.046;21.954;2022-07-05T06:45:54;15.00;;;6.30;;
36137;SDS011;22194;50.046;21.954;2022-07-05T06:48:23;11.10;;;5.60;;
36137;SDS011;22194;50.046;21.954;2022-07-05T06:50:54;13.60;;;6.00;;
36137;SDS011;22194;50.046;21.954;2022-07-05T06:53:24;11.10;;;5.30;;
36137;SDS011;22194;50.046;21.954;2022-07-05T06:55:54;14.30;;;6.10;;
36137;SDS011;22194;50.046;21.954;2022-07-05T06:58:25;10.40;;;5.50;;
36137;SDS011;22194;50.046;21.954;2022-07-05T07:00:55;10.50;;;5.70;;
36137;SDS011;22194;50.046;21.954;2022-07-05T07:03:43;17.60;;;6.20;;
36137;SDS011;22194;50.046;21.954;2022-07-05T07:06:31;13.90;;;6.10;;
36137;SDS011;22194;50.046;21.954;2022-07-05T07:09:00;13.80;;;6.20;;
36137;SDS011;22194;50.046;21.954;2022-07-05T07:11:49;12.60;;;5.60;;
36137;SDS011;22194;50.046;21.954;2022-07-05T07:14:18;9.80;;;5.00;;
36137;SDS011;22194;50.046;21.954;2022-07-05T07:16:47;10.10;;;4.90;;
36137;SDS011;22194;50.046;21.954;2022-07-05T07:19:17;6.60;;;4.40;;
36137;SDS011;22194;50.046;21.954;2022-07-05T07:21:48;9.60;;;4.60;;
36137;SDS011;22194;50.046;21.954;2022-07-05T07:24:16;7.90;;;4.50;;
36137;SDS011;22194;50.046;21.954;2022-07-05T07:26:43;10.60;;;4.80;;
36137;SDS011;22194;50.046;21.954;2022-07-05T07:29:40;6.80;;;4.00;;
36137;SDS011;22194;50.046;21.954;2022-07-05T07:32:10;11.20;;;4.70;;
36137;SDS011;22194;50.046;21.954;2022-07-05T07:34:41;8.70;;;4.30;;
36137;SDS011;22194;50.046;21.954;2022-07-05T07:37:12;9.00;;;4.90;;
36137;SDS011;22194;50.046;21.954;2022-07-05T07:39:44;13.50;;;5.50;;
36137;SDS011;22194;50.046;21.954;2022-07-05T07:42:14;9.40;;;4.60;;
36137;SDS011;22194;50.046;21.954;2022-07-05T07:44:44;7.90;;;4.60;;
36137;SDS011;22194;50.046;21.954;2022-07-05T07:47:14;9.40;;;4.70;;
36137;SDS011;22194;50.046;21.954;2022-07-05T07:49:42;8.50;;;4.90;;
36137;SDS011;22194;50.046;21.954;2022-07-05T07:52:15;9.20;;;4.50;;
36137;SDS011;22194;50.046;21.954;2022-07-05T07:54:46;9.80;;;4.80;;
36137;SDS011;22194;50.046;21.954;2022-07-05T07:57:16;10.20;;;4.70;;
36137;SDS011;22194;50.046;21.954;2022-07-05T07:59:48;11.20;;;4.90;;
36137;SDS011;22194;50.046;21.954;2022-07-05T08:02:18;10.90;;;4.80;;
36137;SDS011;22194;50.046;21.954;2022-07-05T08:04:51;10.30;;;5.00;;
36137;SDS011;22194;50.046;21.954;2022-07-05T08:07:22;9.20;;;4.90;;
36137;SDS011;22194;50.046;21.954;2022-07-05T08:09:50;8.30;;;4.70;;
36137;SDS011;22194;50.046;21.954;2022-07-05T08:12:21;8.00;;;4.90;;
36137;SDS011;22194;50.046;21.954;2022-07-05T08:14:49;8.30;;;4.30;;
36137;SDS011;22194;50.046;21.954;2022-07-05T08:17:17;8.70;;;4.70;;
36137;SDS011;22194;50.046;21.954;2022-07-05T08:19:49;12.00;;;4.80;;
36137;SDS011;22194;50.046;21.954;2022-07-05T08:22:37;9.60;;;5.30;;
36137;SDS011;22194;50.046;21.954;2022-07-05T08:25:05;6.40;;;4.50;;
36137;SDS011;22194;50.046;21.954;2022-07-05T08:27:36;11.10;;;5.00;;
36137;SDS011;22194;50.046;21.954;2022-07-05T08:30:05;13.80;;;5.20;;
36137;SDS011;22194;50.046;21.954;2022-07-05T08:32:35;9.60;;;4.70;;
36137;SDS011;22194;50.046;21.954;2022-07-05T08:35:06;10.60;;;4.70;;
36137;SDS011;22194;50.046;21.954;2022-07-05T08:37:36;12.10;;;5.20;;
36137;SDS011;22194;50.046;21.954;2022-07-05T08:40:07;10.10;;;5.10;;
36137;SDS011;22194;50.046;21.954;2022-07-05T08:42:37;7.40;;;4.70;;
36137;SDS011;22194;50.046;21.954;2022-07-05T08:45:11;9.60;;;5.00;;
36137;SDS011;22194;50.046;21.954;2022-07-05T08:47:40;14.10;;;5.10;;
36137;SDS011;22194;50.046;21.954;2022-07-05T08:50:12;16.30;;;5.30;;
36137;SDS011;22194;50.046;21.954;2022-07-05T08:52:42;21.70;;;5.90;;
36137;SDS011;22194;50.046;21.954;2022-07-05T08:55:12;11.60;;;5.10;;
36137;SDS011;22194;50.046;21.954;2022-07-05T08:57:43;12.50;;;4.60;;
36137;SDS011;22194;50.046;21.954;2022-07-05T09:00:13;10.50;;;4.30;;
36137;SDS011;22194;50.046;21.954;2022-07-05T09:02:44;8.20;;;4.70;;
36137;SDS011;22194;50.046;21.954;2022-07-05T09:05:13;7.10;;;4.50;;
36137;SDS011;22194;50.046;21.954;2022-07-05T09:07:47;15.30;;;4.60;;
36137;SDS011;22194;50.046;21.954;2022-07-05T09:10:24;9.60;;;4.60;;
36137;SDS011;22194;50.046;21.954;2022-07-05T09:12:55;7.60;;;4.90;;
36137;SDS011;22194;50.046;21.954;2022-07-05T09:15:26;8.10;;;4.90;;
36137;SDS011;22194;50.046;21.954;2022-07-05T09:17:57;8.70;;;4.40;;
36137;SDS011;22194;50.046;21.954;2022-07-05T09:20:26;16.50;;;5.80;;
36137;SDS011;22194;50.046;21.954;2022-07-05T09:22:55;9.00;;;4.90;;
36137;SDS011;22194;50.046;21.954;2022-07-05T09:25:25;9.10;;;4.70;;
36137;SDS011;22194;50.046;21.954;2022-07-05T09:28:03;9.90;;;4.80;;
36137;SDS011;22194;50.046;21.954;2022-07-05T09:30:35;8.60;;;4.90;;
36137;SDS011;22194;50.046;21.954;2022-07-05T09:33:11;12.10;;;5.20;;
36137;SDS011;22194;50.046;21.954;2022-07-05T09:35:52;12.20;;;5.20;;
36137;SDS011;22194;50.046;21.954;2022-07-05T09:38:28;12.80;;;5.20;;
36137;SDS011;22194;50.046;21.954;2022-07-05T09:40:59;13.20;;;5.50;;
36137;SDS011;22194;50.046;21.954;2022-07-05T09:43:30;11.90;;;5.70;;
36137;SDS011;22194;50.046;21.954;2022-07-05T09:46:02;11.20;;;6.30;;
36137;SDS011;22194;50.046;21.954;2022-07-05T09:48:33;13.10;;;6.10;;
36137;SDS011;22194;50.046;21.954;2022-07-05T09:51:11;17.30;;;5.60;;
36137;SDS011;22194;50.046;21.954;2022-07-05T09:54:01;11.20;;;5.20;;
36137;SDS011;22194;50.046;21.954;2022-07-05T09:56:45;15.00;;;5.90;;
36137;SDS011;22194;50.046;21.954;2022-07-05T09:59:17;12.50;;;5.90;;
36137;SDS011;22194;50.046;21.954;2022-07-05T10:01:50;10.90;;;4.80;;
36137;SDS011;22194;50.046;21.954;2022-07-05T10:04:20;11.90;;;6.00;;
36137;SDS011;22194;50.046;21.954;2022-07-05T10:06:51;8.50;;;5.60;;
36137;SDS011;22194;50.046;21.954;2022-07-05T10:09:22;12.90;;;5.70;;
36137;SDS011;22194;50.046;21.954;2022-07-05T10:11:52;15.00;;;5.90;;
36137;SDS011;22194;50.046;21.954;2022-07-05T10:14:23;10.20;;;5.50;;
36137;SDS011;22194;50.046;21.954;2022-07-05T10:16:57;13.20;;;6.10;;
36137;SDS011;22194;50.046;21.954;2022-07-05T10:19:32;10.70;;;5.30;;
36137;SDS011;22194;50.046;21.954;2022-07-05T10:22:13;13.10;;;5.10;;
36137;SDS011;22194;50.046;21.954;2022-07-05T10:24:49;10.70;;;5.50;;
36137;SDS011;22194;50.046;21.954;2022-07-05T10:27:23;10.60;;;5.20;;
36137;SDS011;22194;50.046;21.954;2022-07-05T10:29:56;10.90;;;5.10;;
36137;SDS011;22194;50.046;21.954;2022-07-05T10:35:02;14.60;;;5.80;;
36137;SDS011;22194;50.046;21.954;2022-07-05T10:37:34;12.40;;;5.40;;
36137;SDS011;22194;50.046;21.954;2022-07-05T10:40:07;16.40;;;5.60;;
36137;SDS011;22194;50.046;21.954;2022-07-05T10:42:39;9.70;;;5.20;;
36137;SDS011;22194;50.046;21.954;2022-07-05T10:50:46;19.20;;;6.20;;
36137;SDS011;22194;50.046;21.954;2022-07-05T10:53:18;14.70;;;6.30;;
36137;SDS011;22194;50.046;21.954;2022-07-05T10:58:35;17.40;;;6.40;;
36137;SDS011;22194;50.046;21.954;2022-07-05T11:03:54;13.50;;;5.70;;
36137;SDS011;22194;50.046;21.954;2022-07-05T11:06:28;14.40;;;5.60;;
36137;SDS011;22194;50.046;21.954;2022-07-05T11:14:33;11.30;;;5.50;;
36137;SDS011;22194;50.046;21.954;2022-07-05T11:20:03;14.50;;;5.80;;
36137;SDS011;22194;50.046;21.954;2022-07-05T11:22:34;11.00;;;5.30;;
36137;SDS011;22194;50.046;21.954;2022-07-05T11:25:04;12.80;;;5.10;;
36137;SDS011;22194;50.046;21.954;2022-07-05T11:27:34;12.70;;;5.40;;
36137;SDS011;22194;50.046;21.954;2022-07-05T11:30:04;11.30;;;4.90;;
36137;SDS011;22194;50.046;21.954;2022-07-05T11:32:52;13.10;;;5.60;;
36137;SDS011;22194;50.046;21.954;2022-07-05T11:35:20;14.60;;;5.80;;
36137;SDS011;22194;50.046;21.954;2022-07-05T11:38:03;15.50;;;5.40;;
36137;SDS011;22194;50.046;21.954;2022-07-05T11:40:52;16.80;;;5.60;;
36137;SDS011;22194;50.046;21.954;2022-07-05T11:43:27;10.20;;;5.20;;
36137;SDS011;22194;50.046;21.954;2022-07-05T11:45:59;7.60;;;4.70;;
36137;SDS011;22194;50.046;21.954;2022-07-05T11:51:11;10.40;;;5.10;;
36137;SDS011;22194;50.046;21.954;2022-07-05T11:53:45;13.60;;;5.00;;
36137;SDS011;22194;50.046;21.954;2022-07-05T11:56:37;9.10;;;4.60;;
36137;SDS011;22194;50.046;21.954;2022-07-05T11:59:21;11.50;;;5.00;;
36137;SDS011;22194;50.046;21.954;2022-07-05T12:01:53;15.10;;;4.80;;
36137;SDS011;22194;50.046;21.954;2022-07-05T12:04:29;20.70;;;5.90;;
36137;SDS011;22194;50.046;21.954;2022-07-05T12:07:00;10.90;;;4.50;;
36137;SDS011;22194;50.046;21.954;2022-07-05T12:09:32;12.10;;;4.80;;
36137;SDS011;22194;50.046;21.954;2022-07-05T12:12:24;12.10;;;4.50;;
36137;SDS011;22194;50.046;21.954;2022-07-05T12:15:15;13.90;;;4.80;;
36137;SDS011;22194;50.046;21.954;2022-07-05T12:17:48;9.20;;;4.60;;
36137;SDS011;22194;50.046;21.954;2022-07-05T12:20:21;7.80;;;4.60;;
36137;SDS011;22194;50.046;21.954;2022-07-05T12:22:53;9.40;;;4.20;;
36137;SDS011;22194;50.046;21.954;2022-07-05T12:25:24;11.60;;;5.30;;
36137;SDS011;22194;50.046;21.954;2022-07-05T12:27:58;17.90;;;4.70;;
36137;SDS011;22194;50.046;21.954;2022-07-05T12:30:31;12.90;;;4.30;;
36137;SDS011;22194;50.046;21.954;2022-07-05T12:33:07;11.10;;;4.70;;
36137;SDS011;22194;50.046;21.954;2022-07-05T12:35:43;10.70;;;5.00;;
36137;SDS011;22194;50.046;21.954;2022-07-05T12:38:14;12.80;;;4.70;;
36137;SDS011;22194;50.046;21.954;2022-07-05T12:40:56;13.60;;;5.50;;
36137;SDS011;22194;50.046;21.954;2022-07-05T12:43:26;14.00;;;5.10;;
36137;SDS011;22194;50.046;21.954;2022-07-05T12:48:39;8.60;;;4.60;;
36137;SDS011;22194;50.046;21.954;2022-07-05T12:51:09;8.00;;;4.30;;
36137;SDS011;22194;50.046;21.954;2022-07-05T12:53:45;8.30;;;4.30;;
36137;SDS011;22194;50.046;21.954;2022-07-05T12:56:33;10.10;;;4.50;;
36137;SDS011;22194;50.046;21.954;2022-07-05T12:59:40;9.00;;;4.40;;
36137;SDS011;22194;50.046;21.954;2022-07-05T13:05:21;11.40;;;5.10;;
36137;SDS011;22194;50.046;21.954;2022-07-05T13:07:52;8.00;;;4.20;;
36137;SDS011;22194;50.046;21.954;2022-07-05T13:10:26;9.50;;;4.90;;
36137;SDS011;22194;50.046;21.954;2022-07-05T13:13:07;5.30;;;3.60;;
36137;SDS011;22194;50.046;21.954;2022-07-05T13:15:36;8.60;;;4.00;;
36137;SDS011;22194;50.046;21.954;2022-07-05T13:18:06;6.80;;;4.40;;
36137;SDS011;22194;50.046;21.954;2022-07-05T13:20:38;7.90;;;4.10;;
36137;SDS011;22194;50.046;21.954;2022-07-05T13:23:06;10.70;;;4.20;;
36137;SDS011;22194;50.046;21.954;2022-07-05T13:25:35;9.10;;;4.20;;
36137;SDS011;22194;50.046;21.954;2022-07-05T13:28:03;11.00;;;4.50;;
36137;SDS011;22194;50.046;21.954;2022-07-05T13:30:31;8.40;;;4.20;;
36137;SDS011;22194;50.046;21.954;2022-07-05T13:33:00;10.00;;;4.20;;
36137;SDS011;22194;50.046;21.954;2022-07-05T13:35:28;10.40;;;4.50;;
36137;SDS011;22194;50.046;21.954;2022-07-05T13:37:55;9.00;;;4.30;;
36137;SDS011;22194;50.046;21.954;2022-07-05T13:40:23;5.50;;;4.10;;
36137;SDS011;22194;50.046;21.954;2022-07-05T13:42:51;8.10;;;4.10;;
36137;SDS011;22194;50.046;21.954;2022-07-05T13:45:19;15.70;;;4.50;;
36137;SDS011;22194;50.046;21.954;2022-07-05T13:47:52;6.70;;;4.10;;
36137;SDS011;22194;50.046;21.954;2022-07-05T13:50:20;9.50;;;3.80;;
36137;SDS011;22194;50.046;21.954;2022-07-05T13:53:00;6.60;;;3.80;;
36137;SDS011;22194;50.046;21.954;2022-07-05T13:55:29;8.50;;;3.50;;
36137;SDS011;22194;50.046;21.954;2022-07-05T13:57:57;10.10;;;4.70;;
36137;SDS011;22194;50.046;21.954;2022-07-05T14:00:26;12.20;;;4.90;;
36137;SDS011;22194;50.046;21.954;2022-07-05T14:02:55;9.50;;;4.10;;
36137;SDS011;22194;50.046;21.954;2022-07-05T14:05:31;9.60;;;4.00;;
36137;SDS011;22194;50.046;21.954;2022-07-05T14:07:59;6.40;;;3.40;;
36137;SDS011;22194;50.046;21.954;2022-07-05T14:10:27;8.50;;;3.50;;
36137;SDS011;22194;50.046;21.954;2022-07-05T14:12:57;7.00;;;3.80;;
36137;SDS011;22194;50.046;21.954;2022-07-05T14:15:25;7.30;;;4.00;;
36137;SDS011;22194;50.046;21.954;2022-07-05T14:17:52;9.00;;;4.10;;
36137;SDS011;22194;50.046;21.954;2022-07-05T14:20:20;6.00;;;4.00;;
36137;SDS011;22194;50.046;21.954;2022-07-05T14:22:49;7.00;;;3.80;;
36137;SDS011;22194;50.046;21.954;2022-07-05T14:25:17;10.50;;;4.90;;
36137;SDS011;22194;50.046;21.954;2022-07-05T14:27:45;9.60;;;4.20;;
36137;SDS011;22194;50.046;21.954;2022-07-05T14:30:12;7.40;;;3.80;;
36137;SDS011;22194;50.046;21.954;2022-07-05T14:32:41;7.90;;;4.20;;
36137;SDS011;22194;50.046;21.954;2022-07-05T14:35:16;11.50;;;4.20;;
36137;SDS011;22194;50.046;21.954;2022-07-05T14:37:45;8.20;;;4.30;;
36137;SDS011;22194;50.046;21.954;2022-07-05T14:40:13;11.00;;;4.80;;
36137;SDS011;22194;50.046;21.954;2022-07-05T14:42:43;7.60;;;4.30;;
36137;SDS011;22194;50.046;21.954;2022-07-05T14:45:11;8.80;;;4.80;;
36137;SDS011;22194;50.046;21.954;2022-07-05T14:47:39;15.90;;;5.20;;
36137;SDS011;22194;50.046;21.954;2022-07-05T14:50:07;11.40;;;5.00;;
36137;SDS011;22194;50.046;21.954;2022-07-05T14:52:36;8.20;;;4.30;;
36137;SDS011;22194;50.046;21.954;2022-07-05T14:55:04;19.40;;;5.20;;
36137;SDS011;22194;50.046;21.954;2022-07-05T14:57:32;17.30;;;5.40;;
36137;SDS011;22194;50.046;21.954;2022-07-05T15:00:04;12.70;;;5.30;;
36137;SDS011;22194;50.046;21.954;2022-07-05T15:02:36;9.30;;;4.80;;
36137;SDS011;22194;50.046;21.954;2022-07-05T15:05:05;13.00;;;5.20;;
36137;SDS011;22194;50.046;21.954;2022-07-05T15:07:39;9.20;;;5.30;;
36137;SDS011;22194;50.046;21.954;2022-07-05T15:10:08;8.20;;;5.10;;
36137;SDS011;22194;50.046;21.954;2022-07-05T15:12:37;12.30;;;5.20;;
36137;SDS011;22194;50.046;21.954;2022-07-05T15:15:06;10.40;;;5.10;;
36137;SDS011;22194;50.046;21.954;2022-07-05T15:17:34;11.60;;;5.50;;
36137;SDS011;22194;50.046;21.954;2022-07-05T15:20:02;11.70;;;5.10;;